Time;durP1;ratioP1;P1;durP2;ratioP2;P2;SDS_P1;SDS_P2;PMS_P1;PMS_P2;Temp;Humidity;BMP_temperature;BMP_pressure;BME280_temperature;BME280_humidity;BME280_pressure;Samples;Min_cycle;Max_cycle;Signal;HPM_P1;HPM_P2
2023/12/08 00:02:15;;;;;;;41.40;24.10;;;;;;;0.16;100.00;101479.70;109684;1253;72640;-76
2023/12/08 00:04:43;;;;;;;29.90;17.30;;;;;;;0.18;100.00;101475.07;109673;1251;61628;-77
2023/12/08 00:07:11;;;;;;;21.30;15.50;;;;;;;0.19;100.00;101480.73;109637;1251;71455;-77
2023/12/08 00:09:39;;;;;;;28.80;16.80;;;;;;;0.18;100.00;101485.73;109674;1250;61029;-77
2023/12/08 00:12:07;;;;;;;41.60;21.10;;;;;;;0.14;100.00;101478.68;109695;1249;59167;-79
2023/12/08 00:14:34;;;;;;;29.80;19.90;;;;;;;0.11;100.00;101476.98;109670;1250;74270;-78
2023/12/08 00:17:02;;;;;;;27.50;17.70;;;;;;;0.11;100.00;101475.25;109679;1250;61991;-78
2023/12/08 00:19:30;;;;;;;38.60;22.80;;;;;;;0.11;100.00;101468.21;109653;1251;72489;-76
2023/12/08 00:21:58;;;;;;;47.30;28.60;;;;;;;0.11;100.00;101474.06;109646;1253;59568;-77
2023/12/08 00:24:25;;;;;;;36.20;22.10;;;;;;;0.10;100.00;101464.09;109645;1252;60069;-78
2023/12/08 00:26:56;;;;;;;30.00;18.60;;;;;;;0.11;100.00;101469.92;109697;1250;71419;-78
2023/12/08 00:29:25;;;;;;;29.90;19.60;;;;;;;0.12;100.00;101465.80;109696;1250;62440;-76
2023/12/08 00:31:52;;;;;;;35.10;22.20;;;;;;;0.13;100.00;101466.31;109650;1250;72690;-76
2023/12/08 00:34:20;;;;;;;24.80;17.20;;;;;;;0.16;100.00;101465.10;109653;1249;60889;-77
2023/12/08 00:36:49;;;;;;;25.20;17.20;;;;;;;0.15;100.00;101461.31;109673;1250;58889;-78
2023/12/08 00:39:18;;;;;;;24.10;14.90;;;;;;;0.12;100.00;101460.80;109678;1250;73903;-78
2023/12/08 00:41:45;;;;;;;18.50;12.90;;;;;;;0.10;100.00;101455.66;109637;1250;63523;-77
2023/12/08 00:44:13;;;;;;;22.50;14.80;;;;;;;0.08;100.00;101453.09;109683;1251;71639;-77
2023/12/08 00:46:41;;;;;;;22.00;15.60;;;;;;;0.07;100.00;101453.60;109680;1250;60850;-76
2023/12/08 00:49:09;;;;;;;28.60;17.00;;;;;;;0.07;100.00;101453.27;109681;1250;60257;-76
2023/12/08 00:51:37;;;;;;;27.10;17.90;;;;;;;0.04;100.00;101451.55;109675;1250;73941;-74
2023/12/08 00:54:04;;;;;;;18.20;12.90;;;;;;;-0.01;100.00;101461.38;109715;1251;62312;-75
2023/12/08 00:56:32;;;;;;;17.30;12.00;;;;;;;-0.03;100.00;101454.67;109738;1249;71434;-73
2023/12/08 00:59:00;;;;;;;31.20;18.40;;;;;;;-0.06;100.00;101454.16;109677;1250;59610;-76
2023/12/08 01:01:28;;;;;;;21.30;14.70;;;;;;;-0.07;100.00;101451.24;109668;1251;59312;-74
2023/12/08 01:03:55;;;;;;;20.80;14.60;;;;;;;-0.07;100.00;101446.60;109668;1256;73868;-75
2023/12/08 01:06:23;;;;;;;24.70;14.70;;;;;;;-0.07;100.00;101451.41;109656;1250;62649;-75
2023/12/08 01:08:51;;;;;;;14.70;11.70;;;;;;;-0.09;100.00;101443.86;109633;1251;72445;-75
2023/12/08 01:11:19;;;;;;;15.50;12.20;;;;;;;-0.09;100.00;101442.98;109615;1250;60829;-77
2023/12/08 01:13:47;;;;;;;19.90;13.50;;;;;;;-0.09;100.00;101446.44;109702;1252;58750;-77
2023/12/08 01:16:14;;;;;;;25.30;15.50;;;;;;;-0.09;100.00;101438.19;109654;1251;74502;-78
2023/12/08 01:18:44;;;;;;;21.60;14.70;;;;;;;-0.09;100.00;101443.00;109687;1251;62429;-76
2023/12/08 01:21:12;;;;;;;17.40;12.80;;;;;;;-0.08;100.00;101433.04;109692;1250;71642;-77
2023/12/08 01:23:40;;;;;;;16.20;13.40;;;;;;;-0.10;100.00;101430.10;109608;1252;60935;-76
2023/12/08 01:26:08;;;;;;;21.40;14.10;;;;;;;-0.09;100.00;101428.22;109764;1250;60070;-77
2023/12/08 01:28:36;;;;;;;18.80;13.30;;;;;;;-0.09;100.00;101428.05;109717;1250;74423;-77
2023/12/08 01:31:04;;;;;;;18.40;12.50;;;;;;;-0.11;100.00;101424.10;109656;1250;62781;-80
2023/12/08 01:33:32;;;;;;;24.20;15.20;;;;;;;-0.12;100.00;101416.20;109705;1250;72640;-76
2023/12/08 01:36:00;;;;;;;15.30;12.10;;;;;;;-0.13;100.00;101423.08;109671;1249;60854;-76
2023/12/08 01:38:48;;;;;;;19.70;14.30;;;;;;;-0.11;100.00;101417.91;109697;1251;59987;-77
2023/12/08 01:41:15;;;;;;;31.70;18.20;;;;;;;-0.10;100.00;101417.74;109702;1250;73853;-76
2023/12/08 01:43:44;;;;;;;25.10;15.40;;;;;;;-0.11;100.00;101420.66;109692;1250;63826;-75
2023/12/08 01:46:14;;;;;;;21.20;13.80;;;;;;;-0.11;100.00;101417.92;109657;1251;72459;-77
2023/12/08 01:48:42;;;;;;;16.70;13.10;;;;;;;-0.11;100.00;101411.89;109605;1251;61721;-77
2023/12/08 01:51:10;;;;;;;17.60;11.30;;;;;;;-0.10;100.00;101420.13;109691;1250;59025;-77
2023/12/08 01:53:38;;;;;;;17.30;10.90;;;;;;;-0.11;100.00;101410.02;109584;1249;73316;-76
2023/12/08 01:56:07;;;;;;;23.40;15.30;;;;;;;-0.10;100.00;101414.13;109713;1249;62410;-77
2023/12/08 01:58:35;;;;;;;22.30;13.60;;;;;;;-0.10;100.00;101412.75;109693;1250;72809;-75
2023/12/08 02:01:06;;;;;;;17.90;13.70;;;;;;;-0.11;100.00;101416.72;109619;1250;59576;-77
2023/12/08 02:03:33;;;;;;;19.70;13.40;;;;;;;-0.10;100.00;101415.16;109654;1251;59257;-77
2023/12/08 02:06:01;;;;;;;16.60;12.50;;;;;;;-0.09;100.00;101415.16;109503;1250;73876;-76
2023/12/08 02:08:29;;;;;;;17.00;12.10;;;;;;;-0.06;100.00;101418.41;109636;1249;62469;-77
2023/12/08 02:10:57;;;;;;;13.90;11.50;;;;;;;-0.04;100.00;101421.16;109621;1250;72445;-76
2023/12/08 02:13:25;;;;;;;17.20;11.50;;;;;;;-0.03;100.00;101419.95;109645;1253;59547;-76
2023/12/08 02:15:57;;;;;;;19.00;13.80;;;;;;;-0.01;100.00;101426.98;109704;1249;58721;-78
2023/12/08 02:18:25;;;;;;;19.80;14.90;;;;;;;-0.00;100.00;101429.75;109608;1250;72631;-76
2023/12/08 02:20:53;;;;;;;28.00;17.40;;;;;;;-0.02;100.00;101427.86;109700;1250;63517;-76
2023/12/08 02:23:21;;;;;;;27.70;17.40;;;;;;;-0.02;100.00;101432.84;109602;1249;72727;-76
2023/12/08 02:25:48;;;;;;;20.90;14.30;;;;;;;-0.02;100.00;101435.25;109601;1251;59628;-77
2023/12/08 02:28:16;;;;;;;21.00;14.20;;;;;;;-0.01;100.00;101434.20;109668;1250;60078;-77
2023/12/08 02:30:43;;;;;;;23.00;15.80;;;;;;;0.00;100.00;101434.73;109614;1251;72644;-77
2023/12/08 02:33:16;;;;;;;23.40;14.80;;;;;;;0.03;100.00;101430.92;109700;1250;64452;-77
2023/12/08 02:35:43;;;;;;;37.50;21.90;;;;;;;0.05;100.00;101430.24;109619;1251;72727;-77
2023/12/08 02:38:13;;;;;;;31.40;20.50;;;;;;;0.06;100.00;101430.58;109485;1251;60983;-76
2023/12/08 02:40:41;;;;;;;29.40;18.80;;;;;;;0.08;100.00;101429.53;109657;1250;60016;-77
2023/12/08 02:43:09;;;;;;;25.70;15.90;;;;;;;0.10;100.00;101431.42;109641;1250;73894;-78
2023/12/08 02:45:37;;;;;;;20.30;13.50;;;;;;;0.11;100.00;101428.84;109609;1250;65095;-77
2023/12/08 02:48:04;;;;;;;25.10;17.30;;;;;;;0.14;100.00;101434.52;109690;1250;71715;-77
2023/12/08 02:50:32;;;;;;;19.60;14.00;;;;;;;0.14;100.00;101436.39;109494;1251;59555;-77
2023/12/08 02:52:59;;;;;;;18.70;13.70;;;;;;;0.13;100.00;101431.58;109711;1250;60105;-77
2023/12/08 02:55:28;;;;;;;19.70;14.80;;;;;;;0.13;100.00;101423.67;109637;1250;73903;-77
2023/12/08 02:57:55;;;;;;;22.60;16.00;;;;;;;0.13;100.00;101422.46;109663;1249;62241;-75
2023/12/08 03:00:22;;;;;;;24.30;17.10;;;;;;;0.14;100.00;101427.80;109685;1251;72693;-75
2023/12/08 03:02:50;;;;;;;25.90;14.70;;;;;;;0.14;100.00;101431.41;109624;1250;60977;-74
2023/12/08 03:05:18;;;;;;;24.90;15.10;;;;;;;0.15;100.00;101429.16;109671;1250;60027;-77
2023/12/08 03:07:46;;;;;;;28.20;18.30;;;;;;;0.16;100.00;101430.02;109596;1251;73876;-77
2023/12/08 03:10:14;;;;;;;25.40;15.90;;;;;;;0.18;100.00;101434.14;109693;1250;63798;-76
2023/12/08 03:12:42;;;;;;;23.10;15.10;;;;;;;0.18;100.00;101429.84;109621;1256;72180;-75
2023/12/08 03:15:09;;;;;;;25.90;17.00;;;;;;;0.20;100.00;101431.73;109607;1252;60938;-76
2023/12/08 03:17:37;;;;;;;32.80;17.10;;;;;;;0.20;100.00;101428.63;109624;1252;60132;-75
2023/12/08 03:20:05;;;;;;;28.10;17.60;;;;;;;0.20;100.00;101428.28;109552;1252;72671;-77
2023/12/08 03:22:32;;;;;;;41.60;23.90;;;;;;;0.21;100.00;101428.97;109602;1254;62506;-76
2023/12/08 03:25:00;;;;;;;41.40;24.70;;;;;;;0.23;100.00;101436.88;109603;1253;71410;-76
2023/12/08 03:27:28;;;;;;;32.50;20.70;;;;;;;0.22;100.00;101431.02;109565;1253;60976;-75
2023/12/08 03:29:55;;;;;;;32.90;19.90;;;;;;;0.22;100.00;101428.62;109697;1253;58776;-77
2023/12/08 03:32:23;;;;;;;29.70;19.00;;;;;;;0.22;100.00;101429.30;109622;1252;72781;-78
2023/12/08 03:34:51;;;;;;;26.90;17.30;;;;;;;0.20;100.00;101432.23;109584;1253;63654;-76
2023/12/08 03:37:19;;;;;;;29.00;15.40;;;;;;;0.19;100.00;101431.22;109490;1252;72659;-76
2023/12/08 03:39:47;;;;;;;25.90;14.80;;;;;;;0.21;100.00;101436.19;109575;1253;61024;-76
2023/12/08 03:42:14;;;;;;;37.00;20.80;;;;;;;0.21;100.00;101441.52;109678;1252;58801;-76
2023/12/08 03:44:42;;;;;;;43.40;27.30;;;;;;;0.18;100.00;101434.33;109726;1252;74108;-75
2023/12/08 03:47:10;;;;;;;44.90;25.30;;;;;;;0.17;100.00;101432.42;109645;1254;62263;-76
2023/12/08 03:49:37;;;;;;;35.90;22.10;;;;;;;0.17;100.00;101434.48;109578;1252;72843;-75
2023/12/08 03:52:05;;;;;;;34.80;21.60;;;;;;;0.17;100.00;101431.56;109584;1252;60983;-75
2023/12/08 03:54:33;;;;;;;34.50;22.40;;;;;;;0.16;100.00;101433.98;109602;1253;60547;-76
2023/12/08 03:57:00;;;;;;;26.10;16.50;;;;;;;0.13;100.00;101428.83;109615;1252;72165;-75
2023/12/08 03:59:28;;;;;;;28.00;16.40;;;;;;;0.13;100.00;101429.52;109629;1252;64128;-78
2023/12/08 04:01:55;;;;;;;24.80;15.40;;;;;;;0.14;100.00;101430.20;109581;1254;71295;-78
2023/12/08 04:04:23;;;;;;;39.30;24.00;;;;;;;0.17;100.00;101440.67;109625;1252;60891;-77
2023/12/08 04:06:56;;;;;;;44.40;23.70;;;;;;;0.17;100.00;101437.58;109614;1252;58783;-77
2023/12/08 04:09:24;;;;;;;39.80;21.90;;;;;;;0.18;100.00;101442.75;109635;1252;73826;-78
2023/12/08 04:11:56;;;;;;;28.60;18.60;;;;;;;0.19;100.00;101436.54;109619;1252;64214;-78
2023/12/08 04:14:23;;;;;;;30.20;18.60;;;;;;;0.23;100.00;101438.09;109583;1253;71458;-75
2023/12/08 04:16:51;;;;;;;34.20;19.40;;;;;;;0.25;100.00;101442.38;109601;1254;60912;-74
2023/12/08 04:19:20;;;;;;;35.40;20.30;;;;;;;0.24;100.00;101438.77;109508;1253;60135;-77
2023/12/08 04:21:48;;;;;;;29.50;17.30;;;;;;;0.22;100.00;101437.23;109604;1252;75727;-76
2023/12/08 04:24:16;;;;;;;30.70;19.20;;;;;;;0.24;100.00;101432.73;109610;1252;63599;-78
2023/12/08 04:26:44;;;;;;;30.10;18.40;;;;;;;0.25;100.00;101438.59;109560;1253;72770;-76
2023/12/08 04:32:10;;;;;;;20.70;14.30;;;;;;;0.27;100.00;101426.54;103111;1286;600496;-77
2023/12/08 04:34:37;;;;;;;22.40;14.30;;;;;;;0.26;100.00;101426.88;104981;1266;59836;-76
2023/12/08 04:37:05;;;;;;;19.60;12.90;;;;;;;0.28;100.00;101433.24;105637;1259;59280;-78
2023/12/08 04:39:33;;;;;;;17.30;12.70;;;;;;;0.27;100.00;101431.01;105739;1253;72081;-78
2023/12/08 04:42:01;;;;;;;22.10;14.20;;;;;;;0.26;100.00;101438.23;105677;1254;62687;-78
2023/12/08 04:44:46;;;;;;;21.70;13.40;;;;;;;0.27;100.00;101440.98;102633;1291;599650;-79
2023/12/08 04:47:14;;;;;;;24.30;16.50;;;;;;;0.21;100.00;101439.98;105449;1272;61046;-76
2023/12/08 04:49:42;;;;;;;19.80;14.30;;;;;;;0.18;100.00;101436.89;105141;1270;59348;-77
2023/12/08 04:52:10;;;;;;;20.10;12.40;;;;;;;0.17;100.00;101434.15;105129;1261;72254;-79
2023/12/08 04:54:37;;;;;;;19.10;12.00;;;;;;;0.16;100.00;101438.95;105308;1264;63610;-78
2023/12/08 04:57:05;;;;;;;21.10;14.10;;;;;;;0.14;100.00;101438.98;105256;1264;71333;-79
2023/12/08 04:59:34;;;;;;;31.30;19.00;;;;;;;0.13;100.00;101439.14;105233;1262;230633;-80
2023/12/08 05:02:02;;;;;;;36.40;20.90;;;;;;;0.11;100.00;101441.22;105745;1258;60248;-77
2023/12/08 05:04:30;;;;;;;35.70;22.20;;;;;;;0.08;100.00;101440.72;105818;1259;70795;-78
2023/12/08 05:06:58;;;;;;;32.00;19.70;;;;;;;0.05;100.00;101438.84;105870;1257;64359;-79
2023/12/08 05:09:25;;;;;;;27.50;16.70;;;;;;;0.03;100.00;101438.66;105774;1257;73006;-77
2023/12/08 05:11:55;;;;;;;25.70;17.00;;;;;;;0.04;100.00;101440.73;105729;1257;59683;-81
2023/12/08 05:14:23;;;;;;;30.30;17.70;;;;;;;0.04;100.00;101440.21;105689;1254;60108;-77
2023/12/08 05:16:51;;;;;;;27.00;17.50;;;;;;;0.03;100.00;101439.70;105713;1255;72797;-80
2023/12/08 05:19:18;;;;;;;26.40;16.10;;;;;;;0.04;100.00;101434.53;105791;1258;63762;-79
2023/12/08 05:21:46;;;;;;;21.90;14.00;;;;;;;0.05;100.00;101437.97;105761;1257;71195;-79
2023/12/08 05:24:17;;;;;;;17.10;13.90;;;;;;;0.07;100.00;101437.79;105711;1256;59669;-78
2023/12/08 05:26:45;;;;;;;24.50;14.50;;;;;;;0.08;100.00;101442.42;105787;1258;59698;-81
2023/12/08 05:29:13;;;;;;;23.00;15.60;;;;;;;0.09;100.00;101436.23;105673;1254;71837;-79
2023/12/08 05:31:40;;;;;;;21.80;13.10;;;;;;;0.08;100.00;101436.92;105751;1259;62999;-79
2023/12/08 05:34:08;;;;;;;24.70;15.10;;;;;;;0.04;100.00;101435.22;105721;1254;71461;-80
2023/12/08 05:36:36;;;;;;;20.10;14.50;;;;;;;0.03;100.00;101434.37;105563;1260;60427;-78
2023/12/08 05:39:06;;;;;;;18.30;12.30;;;;;;;0.05;100.00;101437.64;105784;1266;59577;-79
2023/12/08 05:41:34;;;;;;;16.60;10.90;;;;;;;0.06;100.00;101438.48;109593;1254;71026;-78
2023/12/08 05:44:02;;;;;;;14.40;10.80;;;;;;;0.06;100.00;101438.66;109620;1253;62392;-78
2023/12/08 05:46:30;;;;;;;15.50;11.20;;;;;;;0.07;100.00;101440.70;109522;1254;72771;-77
2023/12/08 05:48:57;;;;;;;13.50;10.10;;;;;;;0.07;100.00;101441.05;109501;1253;60874;-78
2023/12/08 05:51:25;;;;;;;13.60;9.20;;;;;;;0.06;100.00;101441.75;109394;1255;59069;-77
2023/12/08 05:53:53;;;;;;;14.10;11.40;;;;;;;0.06;100.00;101438.15;109565;1253;72706;-77
2023/12/08 05:56:20;;;;;;;11.70;9.30;;;;;;;0.07;100.00;101450.85;109500;1253;62620;-77
2023/12/08 05:58:48;;;;;;;12.70;10.00;;;;;;;0.08;100.00;101447.92;109492;1257;73167;-77
2023/12/08 06:01:16;;;;;;;15.00;11.10;;;;;;;0.10;100.00;101452.73;109570;1252;59604;-78
2023/12/08 06:03:43;;;;;;;13.00;9.40;;;;;;;0.12;100.00;101456.52;109578;1257;59676;-78
2023/12/08 06:06:11;;;;;;;13.80;9.30;;;;;;;0.13;100.00;101460.81;109555;1253;74384;-77
2023/12/08 06:08:39;;;;;;;13.20;9.60;;;;;;;0.15;100.00;101462.17;109689;1253;62420;-77
2023/12/08 06:11:07;;;;;;;12.00;9.30;;;;;;;0.16;100.00;101468.03;109521;1252;72736;-77
2023/12/08 06:13:34;;;;;;;14.40;9.10;;;;;;;0.16;100.00;101464.25;109564;1253;60426;-78
2023/12/08 06:16:03;;;;;;;13.10;8.80;;;;;;;0.15;100.00;101467.50;109617;1251;59998;-77
2023/12/08 06:18:31;;;;;;;13.20;9.70;;;;;;;0.14;100.00;101470.95;109565;1253;73197;-78
2023/12/08 06:20:59;;;;;;;10.70;8.70;;;;;;;0.14;100.00;101471.47;109620;1254;63566;-77
2023/12/08 06:23:27;;;;;;;10.40;8.10;;;;;;;0.13;100.00;101475.41;109535;1252;72692;-78
2023/12/08 06:25:55;;;;;;;13.50;8.80;;;;;;;0.12;100.00;101476.64;109525;1254;59760;-78
2023/12/08 06:28:22;;;;;;;12.50;10.20;;;;;;;0.11;100.00;101481.97;109608;1252;60434;-78
2023/12/08 06:30:50;;;;;;;9.90;8.40;;;;;;;0.12;100.00;101479.55;109543;1253;73008;-77
2023/12/08 06:33:18;;;;;;;13.10;9.40;;;;;;;0.13;100.00;101474.05;109640;1254;62602;-77
2023/12/08 06:35:46;;;;;;;10.20;8.50;;;;;;;0.15;100.00;101478.52;109667;1254;72733;-77
2023/12/08 06:38:14;;;;;;;11.70;7.90;;;;;;;0.16;100.00;101474.39;109647;1253;60892;-77
2023/12/08 06:40:42;;;;;;;17.90;11.90;;;;;;;0.16;100.00;101481.61;109506;1252;59229;-76
2023/12/08 06:43:09;;;;;;;21.10;12.20;;;;;;;0.16;100.00;101480.40;109633;1251;72850;-77
2023/12/08 06:45:37;;;;;;;12.90;9.00;;;;;;;0.18;100.00;101482.80;109641;1251;62398;-77
2023/12/08 06:48:06;;;;;;;11.40;9.10;;;;;;;0.20;100.00;101485.54;109627;1251;70609;-78
2023/12/08 06:50:34;;;;;;;13.60;9.80;;;;;;;0.20;100.00;101483.13;109626;1250;59566;-78
2023/12/08 06:53:02;;;;;;;13.90;9.60;;;;;;;0.25;100.00;101483.98;109654;1251;59952;-78
2023/12/08 06:55:29;;;;;;;14.30;10.70;;;;;;;0.31;100.00;101477.08;109697;1251;74816;-78
2023/12/08 06:57:57;;;;;;;14.60;11.20;;;;;;;0.33;100.00;101481.02;109642;1251;63956;-77
2023/12/08 07:00:25;;;;;;;14.10;10.60;;;;;;;0.32;100.00;101473.63;109645;1251;72658;-76
2023/12/08 07:02:53;;;;;;;12.80;9.90;;;;;;;0.29;100.00;101468.15;109505;1254;62449;-77
2023/12/08 07:05:21;;;;;;;13.00;9.10;;;;;;;0.26;100.00;101467.64;109692;1251;58807;-77
2023/12/08 07:07:50;;;;;;;12.90;9.60;;;;;;;0.25;100.00;101458.52;109646;1251;71597;-77
2023/12/08 07:10:18;;;;;;;17.80;10.30;;;;;;;0.25;100.00;101460.60;109624;1251;61637;-78
2023/12/08 07:12:45;;;;;;;14.40;9.90;;;;;;;0.26;100.00;101458.52;109635;1251;72433;-78
2023/12/08 07:15:14;;;;;;;12.80;9.70;;;;;;;0.31;100.00;101456.11;109625;1254;59949;-78
2023/12/08 07:17:42;;;;;;;10.10;8.60;;;;;;;0.35;100.00;101455.73;109700;1251;59944;-78
2023/12/08 07:20:11;;;;;;;12.70;9.20;;;;;;;0.41;100.00;101453.81;109650;1251;71836;-78
2023/12/08 07:22:38;;;;;;;12.30;9.10;;;;;;;0.45;100.00;101458.45;109652;1251;62253;-78
2023/12/08 07:25:09;;;;;;;12.50;9.80;;;;;;;0.43;100.00;101458.45;109705;1251;72711;-78
2023/12/08 07:27:36;;;;;;;14.80;9.20;;;;;;;0.44;100.00;101462.76;109616;1251;60891;-79
2023/12/08 07:30:05;;;;;;;13.60;9.80;;;;;;;0.49;100.00;101463.75;109711;1251;60039;-78
2023/12/08 07:32:33;;;;;;;15.40;9.70;;;;;;;0.51;100.00;101464.27;109664;1251;71756;-79
2023/12/08 07:35:01;;;;;;;12.00;9.50;;;;;;;0.51;100.00;101461.34;109678;1251;63502;-79
2023/12/08 07:37:29;;;;;;;11.00;9.00;;;;;;;0.51;100.00;101464.44;109669;1251;70762;-78
2023/12/08 07:39:56;;;;;;;14.40;9.60;;;;;;;0.48;100.00;101465.66;109711;1254;60882;-78
2023/12/08 07:42:24;;;;;;;14.30;9.90;;;;;;;0.46;100.00;101464.45;109685;1251;60069;-78
2023/12/08 07:44:52;;;;;;;12.60;8.60;;;;;;;0.44;100.00;101468.09;109665;1251;71806;-79
2023/12/08 07:47:20;;;;;;;11.10;9.10;;;;;;;0.41;100.00;101466.54;109676;1251;63595;-79
2023/12/08 07:49:49;;;;;;;13.20;9.10;;;;;;;0.39;100.00;101462.60;109634;1251;72811;-80
2023/12/08 07:52:17;;;;;;;16.00;8.70;;;;;;;0.40;100.00;101467.41;109630;1251;61196;-77
2023/12/08 07:54:44;;;;;;;13.00;10.10;;;;;;;0.37;100.00;101468.45;109681;1251;58340;-76
2023/12/08 07:57:12;;;;;;;14.20;9.50;;;;;;;0.35;100.00;101470.88;109681;1251;71805;-78
2023/12/08 07:59:40;;;;;;;16.20;10.60;;;;;;;0.36;100.00;101479.83;109680;1251;61959;-78
2023/12/08 08:02:08;;;;;;;16.00;10.70;;;;;;;0.36;100.00;101480.67;109653;1251;71152;-78
2023/12/08 08:04:35;;;;;;;16.50;10.10;;;;;;;0.35;100.00;101480.16;109656;1251;59702;-79
2023/12/08 08:07:03;;;;;;;15.10;10.10;;;;;;;0.33;100.00;101477.06;109707;1251;60198;-78
2023/12/08 08:09:31;;;;;;;13.20;9.30;;;;;;;0.32;100.00;101477.08;109649;1250;72557;-78
2023/12/08 08:11:59;;;;;;;11.30;9.10;;;;;;;0.31;100.00;101474.84;109684;1251;63697;-77
2023/12/08 08:14:27;;;;;;;14.20;9.90;;;;;;;0.33;100.00;101469.33;109594;1251;72828;-78
2023/12/08 08:16:56;;;;;;;14.70;10.00;;;;;;;0.34;100.00;101467.27;109676;1251;60440;-79
2023/12/08 08:19:24;;;;;;;13.60;8.70;;;;;;;0.36;100.00;101460.73;109691;1250;58954;-78
2023/12/08 08:21:51;;;;;;;18.80;11.60;;;;;;;0.38;100.00;101457.27;109656;1251;72765;-79
2023/12/08 08:24:39;;;;;;;13.00;9.90;;;;;;;0.40;100.00;101451.77;109614;1251;63576;-79
2023/12/08 08:27:08;;;;;;;13.50;10.70;;;;;;;0.43;100.00;101450.55;109383;1251;70716;-78
2023/12/08 08:29:36;;;;;;;18.30;11.50;;;;;;;0.48;100.00;101447.77;109617;1251;60852;-78
2023/12/08 08:32:04;;;;;;;21.20;13.10;;;;;;;0.55;100.00;101447.56;109680;1251;58718;-77
2023/12/08 08:34:32;;;;;;;23.40;12.20;;;;;;;0.59;100.00;101452.70;109529;1251;71966;-80
2023/12/08 08:37:00;;;;;;;18.00;12.80;;;;;;;0.57;100.00;101450.30;109681;1251;65830;-79
2023/12/08 08:39:27;;;;;;;18.70;12.40;;;;;;;0.52;100.00;101450.51;109676;1251;72695;-78
2023/12/08 08:41:55;;;;;;;16.30;10.90;;;;;;;0.52;100.00;101449.46;109631;1254;61288;-79
2023/12/08 08:44:24;;;;;;;22.70;13.40;;;;;;;0.54;100.00;101450.48;109656;1252;58193;-78
2023/12/08 08:46:51;;;;;;;16.00;11.50;;;;;;;0.53;100.00;101442.23;109530;1253;71646;-78
2023/12/08 08:49:19;;;;;;;18.80;12.60;;;;;;;0.56;100.00;101440.15;109618;1252;63830;-80
2023/12/08 08:51:47;;;;;;;17.00;11.80;;;;;;;0.56;100.00;101435.34;109587;1252;72490;-78
2023/12/08 08:54:15;;;;;;;20.50;14.20;;;;;;;0.58;100.00;101432.91;109531;1252;62204;-78
2023/12/08 08:56:43;;;;;;;19.30;12.80;;;;;;;0.62;100.00;101428.26;109541;1252;60097;-80
2023/12/08 08:59:11;;;;;;;18.70;12.30;;;;;;;0.61;100.00;101428.08;109532;1253;74171;-79
2023/12/08 09:01:41;;;;;;;16.40;11.20;;;;;;;0.61;100.00;101426.52;109557;1251;62396;-78
2023/12/08 09:04:08;;;;;;;14.50;11.10;;;;;;;0.64;100.00;101422.39;109504;1252;70376;-78
2023/12/08 09:06:36;;;;;;;13.50;10.30;;;;;;;0.68;100.00;101414.80;109506;1252;59804;-78
2023/12/08 09:09:06;;;;;;;13.70;10.30;;;;;;;0.73;100.00;101413.89;109455;1251;60024;-79
2023/12/08 09:11:35;;;;;;;14.00;9.90;;;;;;;0.73;100.00;101405.46;109596;1252;73431;-79
2023/12/08 09:14:03;;;;;;;13.90;9.30;;;;;;;0.75;100.00;101406.66;109528;1251;64046;-78
2023/12/08 09:16:30;;;;;;;14.70;9.40;;;;;;;0.77;100.00;101403.38;109524;1253;72310;-78
2023/12/08 09:18:58;;;;;;;11.80;9.30;;;;;;;0.79;100.00;101403.02;109528;1252;63046;-79
2023/12/08 09:21:26;;;;;;;13.10;8.80;;;;;;;0.83;100.00;101404.71;109593;1252;59318;-81
2023/12/08 09:23:54;;;;;;;14.80;10.30;;;;;;;0.82;100.00;101401.80;109494;1252;73910;-78
2023/12/08 09:26:22;;;;;;;14.20;10.40;;;;;;;0.83;100.00;101404.36;109619;1252;61821;-78
2023/12/08 09:28:50;;;;;;;14.60;10.80;;;;;;;0.85;100.00;101398.84;109559;1252;72536;-79
2023/12/08 09:31:17;;;;;;;13.40;10.30;;;;;;;0.84;100.00;101396.27;109524;1253;59452;-80
2023/12/08 09:33:46;;;;;;;12.10;8.90;;;;;;;0.84;100.00;101396.09;109671;1252;59930;-79
2023/12/08 09:36:14;;;;;;;12.30;8.90;;;;;;;0.83;100.00;101391.79;109640;1252;72596;-78
2023/12/08 09:38:42;;;;;;;14.00;9.80;;;;;;;0.80;100.00;101393.02;109589;1252;63627;-79
2023/12/08 09:41:10;;;;;;;15.00;10.80;;;;;;;0.76;100.00;101386.50;109452;1253;71634;-79
2023/12/08 09:43:43;;;;;;;16.20;11.70;;;;;;;0.79;100.00;101379.10;109570;1254;62797;-78
2023/12/08 09:46:11;;;;;;;18.30;10.90;;;;;;;0.83;100.00;101376.32;109644;1250;58791;-80
2023/12/08 09:48:39;;;;;;;18.50;10.70;;;;;;;0.86;100.00;101377.14;109677;1251;72918;-77
2023/12/08 09:51:07;;;;;;;15.30;11.10;;;;;;;0.89;100.00;101386.94;109640;1251;62419;-77
2023/12/08 09:53:35;;;;;;;13.30;10.70;;;;;;;0.90;100.00;101380.23;109659;1251;71523;-80
2023/12/08 09:56:03;;;;;;;14.20;10.10;;;;;;;0.89;100.00;101369.55;109483;1253;59808;-78
2023/12/08 09:58:31;;;;;;;14.30;10.50;;;;;;;0.87;100.00;101363.20;109702;1251;60187;-79
2023/12/08 10:00:59;;;;;;;14.30;11.40;;;;;;;0.87;100.00;101363.88;109687;1250;73889;-79
2023/12/08 10:03:27;;;;;;;15.40;11.30;;;;;;;0.87;100.00;101361.14;109680;1251;61868;-79
2023/12/08 10:05:55;;;;;;;14.00;10.80;;;;;;;0.91;100.00;101365.07;109520;1251;71256;-77
2023/12/08 10:08:23;;;;;;;14.30;10.10;;;;;;;0.98;100.00;101365.35;109613;1251;61407;-78
2023/12/08 10:10:51;;;;;;;11.50;9.40;;;;;;;1.02;100.00;101373.23;109667;1251;62458;-77
2023/12/08 10:13:19;;;;;;;14.20;10.20;;;;;;;1.04;100.00;101365.81;109649;1251;72859;-78
2023/12/08 10:15:47;;;;;;;11.60;9.50;;;;;;;1.04;100.00;101362.20;109665;1251;62746;-78
2023/12/08 10:18:25;;;;;;;18.60;11.80;;;;;;;1.02;100.00;101361.86;109623;1251;73737;-79
2023/12/08 10:21:12;;;;;;;14.00;10.40;;;;;;;1.01;100.00;101354.13;109616;1251;60093;-79
2023/12/08 10:23:42;;;;;;;21.90;12.90;;;;;;;1.00;100.00;101356.20;109695;1251;58725;-77
2023/12/08 10:26:12;;;;;;;15.80;12.00;;;;;;;0.99;100.00;101363.09;109547;1251;72231;-79
2023/12/08 10:28:43;;;;;;;18.20;12.70;;;;;;;1.00;100.00;101360.33;109658;1251;63958;-79
2023/12/08 10:31:11;;;;;;;16.10;10.80;;;;;;;1.03;100.00;101365.31;109660;1250;70786;-80
2023/12/08 10:33:40;;;;;;;18.60;10.60;;;;;;;1.07;100.00;101369.91;109638;1251;61731;-78
2023/12/08 10:36:09;;;;;;;23.90;13.90;;;;;;;1.08;100.00;101369.90;109643;1251;60930;-79
2023/12/08 10:38:37;;;;;;;15.00;10.60;;;;;;;1.03;100.00;101367.55;109645;1251;72628;-79
2023/12/08 10:41:05;;;;;;;24.80;13.40;;;;;;;1.01;100.00;101360.66;109628;1251;63694;-79
2023/12/08 10:43:43;;;;;;;20.00;11.90;;;;;;;1.02;100.00;101367.04;109594;1253;72753;-78
2023/12/08 10:46:11;;;;;;;17.50;11.40;;;;;;;1.00;100.00;101363.09;109451;1253;63059;-79
2023/12/08 10:48:39;;;;;;;16.80;12.80;;;;;;;1.00;100.00;101366.02;109622;1252;58939;-78
2023/12/08 10:51:13;;;;;;;15.80;11.20;;;;;;;0.96;100.00;101368.98;109580;1252;73884;-78
2023/12/08 10:53:41;;;;;;;18.00;13.20;;;;;;;0.95;100.00;101377.08;109567;1252;65882;-79
2023/12/08 10:56:10;;;;;;;17.80;12.70;;;;;;;0.97;100.00;101376.20;109517;1252;72814;-77
2023/12/08 10:58:40;;;;;;;18.30;12.00;;;;;;;0.99;100.00;101377.91;109552;1252;61188;-77
2023/12/08 11:01:14;;;;;;;15.60;11.50;;;;;;;0.97;100.00;101376.02;109474;1253;61092;-78
2023/12/08 11:03:42;;;;;;;14.40;11.40;;;;;;;0.97;100.00;101371.55;109561;1252;73996;-81
2023/12/08 11:06:28;;;;;;;17.90;12.90;;;;;;;1.01;100.00;101371.86;109528;1251;65454;-80
2023/12/08 11:08:57;;;;;;;20.10;13.90;;;;;;;1.03;100.00;101363.75;109640;1252;71843;-78
2023/12/08 11:11:26;;;;;;;17.20;12.30;;;;;;;1.06;100.00;101353.92;109578;1252;61809;-78